Terminal Aerodrome Forecast
Issued by NWS

Home | Current Version | Previous Version | Text Only | Print | Product List | Glossary On
Versions: 1 2 3 4 5 6 7 8 9 10 11 12 13 14 15 16 17
599
FTUS41 KILN 261130
TAFLCK
TAF
KLCK 261130Z 2612/2712 VRB04KT P6SM BKN250
      TEMPO 2612/2613 5SM BR
     FM261300 35004KT P6SM SCT035 BKN250
     FM270000 VRB04KT P6SM BKN090=

USA.gov is the U.S. government's official web portal to all federal, state and local government web resources and services.